Time;durP1;ratioP1;P1;durP2;ratioP2;P2;SDS_P1;SDS_P2;PMS_P1;PMS_P2;Temp;Humidity;BMP_temperature;BMP_pressure;BME280_temperature;BME280_humidity;BME280_pressure;Samples;Min_cycle;Max_cycle;Signal;HPM_P1;HPM_P2
2022/08/11 00:01:59;;;;;;;1.15;1.05;;;26.00;44.10;24.90;101950.00;;;;5074410;28;20124;-67
2022/08/11 00:04:45;;;;;;;2.03;1.23;;;26.10;44.20;24.90;101949.00;;;;5071998;28;20039;-68
2022/08/11 00:07:31;;;;;;;1.90;1.30;;;26.00;44.20;24.90;101955.00;;;;5056946;28;20048;-68
2022/08/11 00:10:26;;;;;;;2.30;1.55;;;26.00;44.40;24.90;101954.00;;;;5075626;28;20396;-68
2022/08/11 00:13:12;;;;;;;3.47;1.50;;;26.00;44.50;24.90;101957.00;;;;5060024;28;20043;-67
2022/08/11 00:15:58;;;;;;;1.35;1.25;;;26.00;44.50;24.90;101952.00;;;;5069922;28;20059;-67
2022/08/11 00:18:46;;;;;;;1.50;1.35;;;26.00;44.40;24.90;101959.00;;;;5077233;28;20044;-67
2022/08/11 00:21:33;;;;;;;2.30;1.25;;;25.90;44.50;24.90;101948.00;;;;5060634;28;20048;-67
2022/08/11 00:24:20;;;;;;;1.13;1.02;;;26.00;44.50;24.90;101957.00;;;;5058080;28;20064;-68
2022/08/11 00:27:06;;;;;;;1.70;1.20;;;26.00;44.60;24.90;101956.00;;;;5071914;28;20040;-68
2022/08/11 00:29:53;;;;;;;1.33;1.20;;;25.90;44.50;24.90;101959.00;;;;5067810;28;20048;-67
2022/08/11 00:32:45;;;;;;;2.92;1.20;;;26.00;44.70;24.90;101962.00;;;;5072759;28;20048;-67
2022/08/11 00:35:31;;;;;;;1.77;1.40;;;26.00;44.80;24.90;101960.00;;;;5060571;28;20043;-67
2022/08/11 00:38:19;;;;;;;1.63;1.52;;;26.00;44.80;24.80;101959.00;;;;5076474;28;20040;-67
2022/08/11 00:41:27;;;;;;;2.30;1.30;;;25.90;44.70;24.80;101965.00;;;;5062545;28;20089;-67
2022/08/11 00:44:39;;;;;;;1.42;1.25;;;25.90;44.70;24.80;101961.00;;;;5090902;28;20161;-67
2022/08/11 00:47:30;;;;;;;3.15;1.52;;;25.90;44.70;24.80;101960.00;;;;5077200;28;20489;-68
2022/08/11 00:50:35;;;;;;;1.40;1.10;;;25.90;44.90;24.80;101954.00;;;;5085460;28;20119;-67
2022/08/11 00:54:02;;;;;;;2.10;1.50;;;25.90;45.60;24.80;101953.00;;;;5091184;28;20111;-67
2022/08/11 00:57:10;;;;;;;1.33;1.10;;;25.80;44.80;24.80;101954.00;;;;5077113;28;20036;-67
2022/08/11 01:00:14;;;;;;;1.23;1.08;;;25.90;44.80;24.80;101952.00;;;;5074214;28;20107;-67
2022/08/11 01:03:57;;;;;;;1.10;1.00;;;25.90;44.80;24.80;101948.00;;;;5077859;28;20050;-68
2022/08/11 01:07:04;;;;;;;1.95;0.98;;;25.90;44.90;24.80;101958.00;;;;5094039;28;20051;-67
2022/08/11 01:10:22;;;;;;;2.40;1.48;;;25.80;44.80;24.80;101953.00;;;;5088394;28;20545;-67
2022/08/11 01:13:55;;;;;;;1.17;1.08;;;25.80;45.00;24.70;101956.00;;;;5059652;28;20466;-67
2022/08/11 01:17:24;;;;;;;1.20;1.00;;;25.80;45.00;24.70;101958.00;;;;5084122;28;20140;-67
2022/08/11 01:20:53;;;;;;;1.25;1.13;;;25.80;44.90;24.70;101958.00;;;;5088410;28;20039;-67
2022/08/11 01:24:22;;;;;;;1.67;1.10;;;25.80;45.00;24.70;101954.00;;;;4998590;28;20068;-67
2022/08/11 01:27:52;;;;;;;1.60;1.27;;;25.80;45.00;24.70;101956.00;;;;5092096;28;20071;-67
2022/08/11 01:31:36;;;;;;;1.67;1.08;;;25.80;45.20;24.70;101960.00;;;;5079427;28;20382;-67
2022/08/11 01:34:25;;;;;;;1.30;1.10;;;25.70;45.10;24.70;101968.00;;;;5074436;28;20050;-67
2022/08/11 01:37:51;;;;;;;2.10;1.50;;;25.80;45.20;24.70;101968.00;;;;5091055;28;20039;-67
2022/08/11 01:40:51;;;;;;;2.25;1.30;;;25.70;45.10;24.70;101960.00;;;;5091142;28;20551;-67
2022/08/11 01:47:54;;;;;;;2.85;1.40;;;25.70;45.10;24.70;101955.00;;;;5077232;28;20127;-68
2022/08/11 01:51:13;;;;;;;1.67;0.95;;;25.70;45.10;24.70;101959.00;;;;5073084;28;20538;-67
2022/08/11 01:54:27;;;;;;;2.05;1.30;;;25.70;45.00;24.70;101964.00;;;;5074552;28;20051;-67
2022/08/11 01:57:28;;;;;;;2.53;1.23;;;25.70;45.00;24.70;101961.00;;;;5075288;28;20036;-67
2022/08/11 02:00:18;;;;;;;2.13;1.20;;;25.70;44.90;24.60;101961.00;;;;5083766;28;20467;-67
2022/08/11 02:03:15;;;;;;;1.42;1.20;;;25.60;44.90;24.70;101968.00;;;;5074674;28;20052;-67
2022/08/11 02:09:45;;;;;;;1.95;1.30;;;25.70;45.80;24.60;101966.00;;;;5067832;28;20044;-67
2022/08/11 02:12:49;;;;;;;1.63;1.38;;;25.60;45.10;24.60;101967.00;;;;5088256;28;20221;-68
2022/08/11 02:15:46;;;;;;;1.77;1.30;;;25.70;45.30;24.60;101967.00;;;;5077752;28;20044;-67
2022/08/11 02:25:27;;;;;;;1.70;1.20;;;25.70;45.10;24.60;101963.00;;;;5078140;28;20329;-68
2022/08/11 02:28:16;;;;;;;1.77;1.42;;;25.60;45.30;24.60;101951.00;;;;5073340;28;20134;-67
2022/08/11 02:34:39;;;;;;;1.30;1.13;;;25.60;45.10;24.60;101953.00;;;;5076505;28;20110;-67
2022/08/11 02:37:30;;;;;;;2.63;1.70;;;25.60;45.10;24.60;101964.00;;;;5083185;28;20047;-67
2022/08/11 02:40:25;;;;;;;1.98;1.15;;;25.60;45.20;24.60;101955.00;;;;5079510;28;20051;-67
2022/08/11 02:43:44;;;;;;;1.60;1.30;;;25.50;45.10;24.60;101955.00;;;;5068301;28;20045;-67
2022/08/11 02:47:14;;;;;;;2.22;1.20;;;25.50;45.10;24.60;101953.00;;;;5064986;28;20482;-67
2022/08/11 02:50:10;;;;;;;2.15;1.35;;;25.50;45.00;24.60;101958.00;;;;5076408;28;20482;-67
2022/08/11 02:53:05;;;;;;;1.95;1.30;;;25.50;45.00;24.60;101959.00;;;;5079281;28;20055;-67
2022/08/11 02:56:14;;;;;;;1.80;1.10;;;25.50;45.00;24.60;101965.00;;;;5075553;28;20043;-67
2022/08/11 02:59:49;;;;;;;1.40;1.30;;;25.50;45.00;24.60;101959.00;;;;5087205;28;20035;-67
2022/08/11 03:03:01;;;;;;;1.73;1.35;;;25.50;45.80;24.50;101963.00;;;;5069434;28;20051;-68
2022/08/11 03:06:05;;;;;;;1.83;1.15;;;25.50;45.10;24.50;101968.00;;;;5079497;28;20484;-67
2022/08/11 03:09:39;;;;;;;1.63;1.35;;;25.50;45.10;24.50;101972.00;;;;5060525;28;20490;-67
2022/08/11 03:17:11;;;;;;;1.92;1.50;;;25.50;45.20;24.50;101959.00;;;;5069434;28;20066;-67
2022/08/11 03:20:22;;;;;;;1.40;1.30;;;25.40;45.10;24.50;101964.00;;;;4987962;28;20039;-67
2022/08/11 03:23:40;;;;;;;1.83;1.27;;;25.50;45.00;24.50;101956.00;;;;5070076;28;20086;-67
2022/08/11 03:26:55;;;;;;;2.38;1.23;;;25.40;45.10;24.50;101957.00;;;;5078311;28;20490;-67
2022/08/11 03:30:17;;;;;;;4.68;1.60;;;25.40;45.20;24.50;101958.00;;;;5079129;28;20485;-67
2022/08/11 03:44:35;;;;;;;1.73;1.38;;;25.30;45.10;24.40;101950.00;;;;5075936;28;20627;-67
2022/08/11 03:47:46;;;;;;;3.42;1.45;;;25.30;45.20;24.40;101950.00;;;;5090933;28;20135;-67
2022/08/11 03:50:50;;;;;;;1.58;1.27;;;25.30;45.10;24.40;101955.00;;;;5089731;28;20047;-67
2022/08/11 03:54:14;;;;;;;2.60;1.30;;;25.30;45.20;24.40;101949.00;;;;5095467;28;20078;-67
2022/08/11 03:57:58;;;;;;;2.20;1.42;;;25.20;45.30;24.40;101958.00;;;;5068533;28;20043;-68
2022/08/11 04:01:16;;;;;;;1.40;1.30;;;25.20;45.40;24.30;101959.00;;;;5089044;28;20044;-67
2022/08/11 04:04:34;;;;;;;1.67;1.23;;;25.20;45.40;24.30;101959.00;;;;5075124;28;20047;-67
2022/08/11 04:08:05;;;;;;;1.87;1.20;;;25.20;45.40;24.30;101956.00;;;;5083300;28;20063;-67
2022/08/11 04:11:37;;;;;;;3.20;1.50;;;25.20;45.40;24.30;101949.00;;;;5080851;28;20170;-67
2022/08/11 04:18:23;;;;;;;1.33;1.20;;;25.20;45.20;24.30;101953.00;;;;5074060;28;20405;-67
2022/08/11 04:21:33;;;;;;;;;;;25.20;45.20;24.30;101961.00;;;;5081252;28;20506;-67
2022/08/11 04:24:53;;;;;;;2.25;1.40;;;25.20;45.20;24.30;101949.00;;;;5088291;28;19916;-67
2022/08/11 04:28:30;;;;;;;2.95;1.50;;;25.20;45.30;24.30;101949.00;;;;5076254;28;20036;-67
2022/08/11 04:31:44;;;;;;;2.30;1.38;;;25.20;45.50;24.30;101946.00;;;;5081982;28;20561;-67
2022/08/11 04:34:50;;;;;;;3.45;1.40;;;25.10;45.50;24.30;101941.00;;;;5062122;28;20037;-67
2022/08/11 04:37:45;;;;;;;2.72;1.38;;;25.10;45.50;24.30;101939.00;;;;5064276;28;20047;-67
2022/08/11 04:41:13;;;;;;;2.38;1.40;;;25.10;45.50;24.20;101931.00;;;;5075071;28;20040;-67
2022/08/11 04:44:36;;;;;;;3.25;1.30;;;25.10;45.50;24.20;101939.00;;;;5082705;28;20051;-67
2022/08/11 05:02:28;;;;;;;1.42;1.20;;;25.00;45.30;24.20;101942.00;;;;5089989;28;20036;-67
2022/08/11 05:06:06;;;;;;;1.40;1.30;;;25.00;45.40;24.20;101941.00;;;;5071817;28;20492;-67
2022/08/11 05:09:35;;;;;;;2.10;1.13;;;25.00;45.60;24.20;101946.00;;;;5079447;28;20385;-67
2022/08/11 05:27:09;;;;;;;1.73;1.27;;;25.00;45.80;24.20;101948.00;;;;5075260;28;20048;-67
2022/08/11 05:35:45;;;;;;;1.40;1.30;;;25.10;45.70;24.20;101962.00;;;;5069150;28;20881;-67
2022/08/11 05:57:28;;;;;;;2.03;1.30;;;25.10;45.90;24.20;101962.00;;;;5086316;28;20070;-67
2022/08/11 06:00:14;;;;;;;1.58;1.48;;;25.10;46.00;24.30;101962.00;;;;5064976;28;20035;-67
2022/08/11 06:03:02;;;;;;;1.27;1.05;;;25.10;46.00;24.30;101954.00;;;;5061637;28;20043;-67
2022/08/11 06:05:48;;;;;;;1.70;1.23;;;25.10;46.00;24.30;101957.00;;;;5080504;28;20088;-67
2022/08/11 06:08:35;;;;;;;2.22;1.25;;;25.10;46.00;24.30;101950.00;;;;5073532;28;20405;-67
2022/08/11 06:11:21;;;;;;;2.47;1.30;;;25.20;46.00;24.30;101951.00;;;;5074202;28;20484;-67
2022/08/11 06:14:09;;;;;;;0.98;0.98;;;25.20;46.00;24.30;101959.00;;;;5075636;28;20398;-67
2022/08/11 06:16:58;;;;;;;1.75;1.23;;;25.20;46.00;24.30;101950.00;;;;5085584;28;20126;-67
2022/08/11 06:19:46;;;;;;;2.13;1.33;;;25.20;46.00;24.30;101959.00;;;;5076207;28;20054;-67
2022/08/11 06:22:32;;;;;;;1.63;1.33;;;25.20;46.00;24.30;101955.00;;;;5052151;28;20043;-67
2022/08/11 06:25:18;;;;;;;1.73;1.42;;;25.20;46.00;24.30;101961.00;;;;5061263;28;20100;-67
2022/08/11 06:28:05;;;;;;;2.63;1.40;;;25.30;46.10;24.40;101963.00;;;;5072028;28;20040;-67
2022/08/11 06:30:51;;;;;;;1.70;1.27;;;25.30;46.20;24.40;101960.00;;;;5064396;28;20492;-67
2022/08/11 06:34:00;;;;;;;1.52;1.30;;;25.30;46.10;24.40;101955.00;;;;5075796;28;20044;-67
2022/08/11 06:36:54;;;;;;;1.50;1.38;;;25.30;46.00;24.40;101956.00;;;;5063184;28;20055;-67
2022/08/11 06:40:21;;;;;;;2.63;1.70;;;25.30;46.00;24.40;101957.00;;;;5074513;28;20032;-67
2022/08/11 06:43:24;;;;;;;1.63;1.25;;;25.30;45.90;24.40;101958.00;;;;5071014;28;20044;-67
2022/08/11 06:46:10;;;;;;;2.75;1.45;;;25.40;45.90;24.40;101960.00;;;;5062266;28;20062;-67
2022/08/11 06:48:56;;;;;;;1.33;1.17;;;25.40;45.80;24.40;101962.00;;;;5065553;28;20040;-67
2022/08/11 06:51:46;;;;;;;1.60;0.90;;;25.40;45.70;24.40;101965.00;;;;5075139;28;20051;-67
2022/08/11 06:54:40;;;;;;;1.15;1.05;;;25.50;45.70;24.40;101958.00;;;;5063343;28;20036;-67
2022/08/11 07:00:31;;;;;;;1.95;1.27;;;25.40;45.50;24.40;101961.00;;;;5067483;28;20394;-67
2022/08/11 07:03:18;;;;;;;2.97;1.15;;;25.50;45.60;24.40;101953.00;;;;5069294;28;20043;-67
2022/08/11 07:06:31;;;;;;;1.65;1.10;;;25.50;45.50;24.40;101953.00;;;;5077652;28;20036;-67
2022/08/11 07:16:28;;;;;;;1.85;1.30;;;25.50;45.40;24.40;101951.00;;;;5082847;28;20146;-67
2022/08/11 07:28:54;;;;;;;1.73;1.20;;;25.50;45.30;24.40;101951.00;;;;5067942;28;20047;-67
2022/08/11 07:31:45;;;;;;;1.23;1.13;;;25.50;45.30;24.50;101956.00;;;;5079188;28;20504;-68
2022/08/11 07:34:35;;;;;;;1.20;1.08;;;25.50;45.30;24.50;101955.00;;;;5077025;28;20100;-68
2022/08/11 07:37:22;;;;;;;1.70;1.23;;;25.50;45.30;24.50;101944.00;;;;5066420;28;20102;-67
2022/08/11 07:40:09;;;;;;;3.17;1.20;;;25.50;45.30;24.50;101947.00;;;;5077945;28;20028;-67
2022/08/11 07:42:55;;;;;;;1.17;1.08;;;25.50;45.20;24.50;101947.00;;;;5059923;28;20035;-67
2022/08/11 07:55:07;;;;;;;1.63;1.02;;;25.50;45.20;24.50;101942.00;;;;5079031;28;20040;-67
2022/08/11 08:19:26;;;;;;;1.10;1.00;;;25.50;45.20;24.50;101941.00;;;;5080030;28;20039;-67
2022/08/11 08:22:15;;;;;;;2.38;1.17;;;25.60;45.40;24.50;101946.00;;;;5051359;28;20132;-67
2022/08/11 08:25:01;;;;;;;1.25;1.00;;;25.60;45.50;24.50;101945.00;;;;5071471;28;20043;-67
2022/08/11 08:27:48;;;;;;;1.33;1.02;;;25.50;45.40;24.50;101944.00;;;;5091842;28;20088;-67
2022/08/11 08:30:47;;;;;;;2.47;1.08;;;25.60;45.40;24.50;101937.00;;;;5082533;28;20044;-67
2022/08/11 08:33:33;;;;;;;2.63;1.10;;;25.50;45.20;24.50;101940.00;;;;5073905;28;20083;-67
2022/08/11 08:36:19;;;;;;;1.20;1.02;;;25.60;45.10;24.50;101943.00;;;;5075899;28;20058;-67
2022/08/11 08:39:05;;;;;;;2.10;1.10;;;25.60;45.00;24.50;101945.00;;;;5060351;28;20040;-67
2022/08/11 08:41:56;;;;;;;0.68;0.68;;;25.60;45.00;24.50;101946.00;;;;5073539;28;20047;-67
2022/08/11 08:44:46;;;;;;;1.15;1.00;;;25.50;44.90;24.50;101942.00;;;;5056522;28;20127;-67
2022/08/11 08:47:43;;;;;;;2.50;1.02;;;25.60;45.00;24.50;101936.00;;;;5075089;28;20058;-67
2022/08/11 08:53:51;;;;;;;5.07;1.17;;;25.60;45.00;24.50;101935.00;;;;5068638;28;20039;-67
2022/08/11 08:56:39;;;;;;;1.20;0.90;;;25.60;45.00;24.50;101938.00;;;;5082534;28;20036;-67
2022/08/11 08:59:25;;;;;;;2.85;0.90;;;25.50;44.90;24.50;101939.00;;;;5081002;28;20089;-67
2022/08/11 09:02:12;;;;;;;1.88;1.20;;;25.60;44.90;24.50;101942.00;;;;5073259;28;20039;-67
2022/08/11 09:04:58;;;;;;;1.10;0.95;;;25.60;44.80;24.50;101942.00;;;;5075659;28;20032;-67
2022/08/11 09:07:46;;;;;;;1.73;1.13;;;25.60;44.80;24.50;101938.00;;;;5078116;28;20405;-67
2022/08/11 09:10:32;;;;;;;1.52;1.00;;;25.60;44.80;24.50;101928.00;;;;5077714;28;20048;-67
2022/08/11 09:13:18;;;;;;;1.00;0.80;;;25.60;44.80;24.50;101939.00;;;;5079194;28;20044;-67
2022/08/11 09:16:04;;;;;;;4.18;1.10;;;25.60;44.70;24.50;101933.00;;;;5081680;28;20031;-67
2022/08/11 09:18:50;;;;;;;1.63;1.10;;;25.60;44.40;24.50;101935.00;;;;5062629;28;20040;-67
2022/08/11 09:21:40;;;;;;;1.63;1.00;;;25.60;44.10;24.50;101930.00;;;;5082479;28;20049;-67
2022/08/11 09:27:48;;;;;;;1.48;0.75;;;25.60;43.40;24.60;101932.00;;;;5010397;28;20088;-67
2022/08/11 09:30:34;;;;;;;1.05;0.95;;;25.60;43.50;24.50;101929.00;;;;5092302;28;20067;-67
2022/08/11 09:33:21;;;;;;;2.03;1.10;;;25.60;43.50;24.60;101925.00;;;;5069502;28;20044;-67
2022/08/11 09:42:17;;;;;;;2.42;1.23;;;25.60;43.10;24.50;101931.00;;;;5070677;28;20036;-67
2022/08/11 09:45:03;;;;;;;1.58;1.10;;;25.60;43.10;24.50;101919.00;;;;5069069;28;20040;-67
2022/08/11 09:47:49;;;;;;;1.77;1.13;;;25.60;43.10;24.60;101928.00;;;;5066851;28;20350;-67
2022/08/11 09:50:38;;;;;;;1.15;1.05;;;25.60;42.90;24.60;101926.00;;;;5067903;28;20501;-67
2022/08/11 09:53:27;;;;;;;1.48;1.10;;;25.60;42.90;24.60;101920.00;;;;5045829;28;20094;-67
2022/08/11 09:59:24;;;;;;;1.08;0.80;;;25.60;42.30;24.60;101915.00;;;;5078490;28;20141;-68
2022/08/11 10:02:10;;;;;;;5.45;1.20;;;25.50;42.50;24.60;101917.00;;;;5072001;28;20037;-68
2022/08/11 10:08:01;;;;;;;1.10;1.02;;;25.60;41.90;24.60;101915.00;;;;5075134;28;20126;-68
2022/08/11 10:10:48;;;;;;;1.55;1.13;;;25.60;41.90;24.60;101912.00;;;;5075422;28;20040;-68
2022/08/11 10:15:32;;;;;;;1.52;0.90;;;25.60;41.80;24.60;101900.00;;;;5073843;28;20036;-68
2022/08/11 10:16:40;;;;;;;1.75;1.15;;;25.60;41.80;24.60;101901.00;;;;5065702;28;20498;-68
2022/08/11 10:19:26;;;;;;;2.45;1.10;;;25.60;41.60;24.60;101896.00;;;;5073358;28;20040;-68
2022/08/11 10:28:21;;;;;;;2.00;1.10;;;25.60;41.70;24.60;101894.00;;;;5090481;28;20051;-68
2022/08/11 10:34:12;;;;;;;1.33;1.00;;;25.60;41.80;24.60;101882.00;;;;5076612;28;20093;-68
2022/08/11 10:37:01;;;;;;;2.88;1.02;;;25.70;41.80;24.60;101875.00;;;;5080145;28;20033;-68
2022/08/11 10:39:47;;;;;;;1.15;0.90;;;25.70;41.80;24.60;101879.00;;;;5076937;28;20032;-68
2022/08/11 10:48:45;;;;;;;2.25;0.90;;;25.70;41.70;24.60;101873.00;;;;5066173;28;20440;-67
2022/08/11 11:00:45;;;;;;;1.15;1.05;;;25.70;41.60;24.60;101865.00;;;;5070323;28;20089;-67
2022/08/11 11:03:33;;;;;;;1.35;1.00;;;25.70;41.80;24.60;101871.00;;;;5077441;28;20059;-67
2022/08/11 11:06:34;;;;;;;1.13;0.80;;;25.80;42.40;24.60;101864.00;;;;5051630;28;20045;-67
2022/08/11 11:09:28;;;;;;;1.08;0.95;;;25.70;41.50;24.60;101871.00;;;;5063563;28;20052;-67
2022/08/11 11:18:34;;;;;;;1.77;0.93;;;25.80;41.60;24.60;101862.00;;;;5069916;28;20044;-68
2022/08/11 11:21:20;;;;;;;2.13;1.10;;;25.80;41.60;24.60;101853.00;;;;5064735;28;20494;-67
2022/08/11 11:24:20;;;;;;;1.35;1.17;;;25.80;41.60;24.60;101846.00;;;;5074418;28;20036;-68
2022/08/11 11:27:35;;;;;;;1.63;1.13;;;25.70;41.20;24.60;101844.00;;;;5077703;28;20114;-68
2022/08/11 11:30:21;;;;;;;1.33;0.98;;;25.80;41.30;24.60;101844.00;;;;5072276;28;20047;-67
2022/08/11 11:33:15;;;;;;;3.85;0.90;;;25.70;41.40;24.60;101849.00;;;;5073422;28;20044;-67
2022/08/11 11:36:27;;;;;;;0.98;0.90;;;25.80;41.50;24.60;101842.00;;;;5071508;28;20385;-67
2022/08/11 11:39:20;;;;;;;1.75;1.42;;;25.80;41.30;24.60;101840.00;;;;5061183;28;20145;-67
2022/08/11 11:42:09;;;;;;;1.35;1.10;;;25.80;41.10;24.60;101834.00;;;;5071426;28;20037;-68
2022/08/11 11:44:55;;;;;;;1.10;0.85;;;25.80;41.20;24.70;101838.00;;;;5063942;28;20039;-68
2022/08/11 11:47:41;;;;;;;1.85;0.80;;;25.80;41.10;24.70;101831.00;;;;5068280;28;20481;-67
2022/08/11 11:50:29;;;;;;;1.15;1.02;;;25.80;41.10;24.70;101831.00;;;;5058124;28;20044;-67
2022/08/11 11:53:15;;;;;;;1.13;1.00;;;25.80;41.10;24.70;101823.00;;;;5082191;28;20098;-67
2022/08/11 11:56:02;;;;;;;1.80;1.05;;;25.80;41.00;24.70;101823.00;;;;5074149;28;20046;-67
2022/08/11 12:01:53;;;;;;;1.20;1.00;;;25.80;41.00;24.70;101816.00;;;;5073134;28;20100;-68
2022/08/11 12:04:40;;;;;;;1.30;1.13;;;25.80;40.90;24.70;101813.00;;;;5078922;28;20040;-67
2022/08/11 12:10:31;;;;;;;2.35;1.08;;;25.90;41.00;24.70;101813.00;;;;5063187;28;20501;-67
2022/08/11 12:16:22;;;;;;;2.97;1.08;;;25.90;40.90;24.70;101802.00;;;;5074394;28;20058;-67
2022/08/11 12:19:14;;;;;;;2.97;1.13;;;25.90;40.90;24.70;101794.00;;;;5075469;28;20063;-68
2022/08/11 12:28:10;;;;;;;1.88;1.05;;;26.00;41.00;24.70;101794.00;;;;5055127;28;20044;-67
2022/08/11 12:30:56;;;;;;;1.95;0.77;;;26.00;40.90;24.70;101793.00;;;;5077360;28;20042;-67
2022/08/11 12:33:43;;;;;;;1.55;1.10;;;25.90;41.00;24.70;101794.00;;;;5066816;28;20040;-68
2022/08/11 12:36:33;;;;;;;1.27;1.17;;;25.90;40.90;24.70;101787.00;;;;5078402;28;20469;-67
2022/08/11 12:45:26;;;;;;;1.38;0.98;;;26.00;41.00;24.70;101775.00;;;;5066386;28;20040;-67
2022/08/11 12:45:32;;;;;;;2.40;1.02;;;26.00;41.10;24.70;101772.00;;;;5068360;28;20078;-68
2022/08/11 12:54:50;;;;;;;2.08;0.90;;;26.00;41.10;24.70;101770.00;;;;5083026;28;20379;-67
2022/08/11 13:07:02;;;;;;;1.65;0.70;;;26.00;41.00;24.70;101762.00;;;;5070343;28;20042;-68
2022/08/11 13:09:48;;;;;;;1.92;1.13;;;26.00;41.20;24.80;101756.00;;;;5078845;28;20524;-67
2022/08/11 13:12:49;;;;;;;1.67;1.10;;;26.00;41.90;24.80;101757.00;;;;5061196;28;20044;-68
2022/08/11 13:15:35;;;;;;;2.20;0.80;;;26.10;41.20;24.80;101761.00;;;;5068492;28;20036;-67
2022/08/11 13:18:22;;;;;;;1.48;0.93;;;26.00;41.00;24.80;101754.00;;;;5077829;28;20102;-67
2022/08/11 13:21:11;;;;;;;1.10;1.00;;;26.00;41.10;24.80;101757.00;;;;5074786;28;20496;-67
2022/08/11 13:23:57;;;;;;;4.10;1.00;;;26.10;41.10;24.80;101744.00;;;;5087796;28;20032;-67
2022/08/11 13:26:43;;;;;;;2.10;1.30;;;26.00;40.90;24.80;101754.00;;;;5077011;28;20040;-68
2022/08/11 13:29:29;;;;;;;0.88;0.88;;;26.00;41.00;24.80;101746.00;;;;5064952;28;20054;-67
2022/08/11 13:32:15;;;;;;;1.85;0.80;;;26.10;41.10;24.80;101748.00;;;;5056929;28;20048;-68
2022/08/11 13:35:01;;;;;;;1.63;1.08;;;26.10;41.00;24.80;101745.00;;;;5068953;28;20036;-67
2022/08/11 13:37:47;;;;;;;2.97;1.15;;;26.10;40.90;24.80;101734.00;;;;5072643;28;20048;-67
2022/08/11 13:40:34;;;;;;;0.90;0.80;;;26.10;40.80;24.80;101744.00;;;;5060637;28;20558;-67
2022/08/11 13:43:21;;;;;;;0.95;0.80;;;26.10;40.70;24.80;101742.00;;;;5074934;28;20448;-68
2022/08/11 13:46:19;;;;;;;1.17;1.08;;;26.10;40.60;24.80;101737.00;;;;5067029;28;20035;-68
2022/08/11 13:49:07;;;;;;;0.80;0.80;;;26.10;40.50;24.80;101727.00;;;;5074930;28;20106;-68
2022/08/11 13:51:54;;;;;;;2.85;0.88;;;26.10;40.70;24.90;101735.00;;;;5062963;28;20051;-68
2022/08/11 13:54:41;;;;;;;1.80;0.90;;;26.00;40.70;24.90;101735.00;;;;5078554;28;20071;-67
2022/08/11 13:57:32;;;;;;;0.88;0.80;;;26.10;40.60;24.80;101729.00;;;;5061789;28;20520;-67
2022/08/11 14:00:18;;;;;;;1.10;0.73;;;26.20;41.40;24.90;101722.00;;;;5080088;28;20036;-67
2022/08/11 14:03:07;;;;;;;3.40;0.90;;;26.10;40.50;24.90;101722.00;;;;5072859;28;20550;-68
2022/08/11 14:05:55;;;;;;;3.03;0.93;;;26.10;40.50;24.90;101719.00;;;;5055981;28;20065;-67
2022/08/11 14:08:41;;;;;;;1.52;0.70;;;26.10;40.40;24.90;101718.00;;;;5073176;28;20040;-67
2022/08/11 14:14:34;;;;;;;5.78;1.20;;;26.10;40.50;24.90;101719.00;;;;5073445;28;20042;-67
2022/08/11 14:17:20;;;;;;;2.63;1.30;;;26.20;41.20;24.90;101707.00;;;;5068872;28;20039;-68
2022/08/11 14:20:07;;;;;;;1.73;0.90;;;26.20;40.40;24.90;101703.00;;;;5037592;28;1055568;-67
2022/08/11 14:22:55;;;;;;;1.63;0.90;;;26.20;40.40;24.90;101700.00;;;;5058531;28;20469;-68
2022/08/11 14:26:22;;;;;;;;;;;26.20;40.30;24.90;101702.00;;;;5067243;28;20170;-67
2022/08/11 14:28:47;;;;;;;3.65;1.05;;;26.20;40.70;24.90;101711.00;;;;5085216;28;19930;-67
2022/08/11 14:31:36;;;;;;;1.52;0.88;;;26.20;39.90;24.90;101705.00;;;;5060740;28;20040;-68
2022/08/11 14:34:27;;;;;;;2.90;1.10;;;26.20;39.90;24.90;101703.00;;;;5076433;28;20054;-67
2022/08/11 14:37:24;;;;;;;1.63;0.90;;;26.20;40.10;24.90;101705.00;;;;5086469;28;20127;-67
2022/08/11 14:47:03;;;;;;;1.23;0.80;;;26.20;40.10;24.90;101707.00;;;;5072449;28;20032;-67
2022/08/11 14:49:25;;;;;;;1.25;0.82;;;26.20;40.20;24.90;101711.00;;;;5074234;28;20050;-67
2022/08/11 14:52:15;;;;;;;0.80;0.80;;;26.20;40.20;24.90;101698.00;;;;5073582;28;20113;-68
2022/08/11 14:58:08;;;;;;;1.55;1.00;;;26.20;40.30;24.90;101690.00;;;;5072772;28;20027;-68
2022/08/11 15:00:56;;;;;;;2.15;1.10;;;26.20;40.40;24.90;101696.00;;;;5057366;28;20027;-68
2022/08/11 15:03:42;;;;;;;2.05;1.00;;;26.20;40.40;24.90;101698.00;;;;5073261;28;20135;-68
2022/08/11 15:06:28;;;;;;;1.20;0.68;;;26.20;40.30;25.00;101693.00;;;;5056237;28;20046;-68
2022/08/11 15:09:14;;;;;;;2.95;1.10;;;26.20;40.30;25.00;101693.00;;;;5057142;28;20233;-68
2022/08/11 15:12:15;;;;;;;2.40;1.00;;;26.20;40.30;25.00;101687.00;;;;5075784;28;20039;-68
2022/08/11 15:18:12;;;;;;;1.90;0.90;;;26.20;40.40;25.00;101685.00;;;;5079465;28;20032;-68
2022/08/11 15:24:18;;;;;;;3.33;1.88;;;26.30;40.40;25.00;101676.00;;;;5087598;28;20106;-68
2022/08/11 15:45:46;;;;;;;2.50;1.05;;;26.20;40.10;25.00;101658.00;;;;5065369;28;20478;-68
2022/08/11 15:46:16;;;;;;;0.90;0.80;;;26.30;40.30;25.00;101661.00;;;;5066330;28;20478;-68
2022/08/11 15:49:08;;;;;;;1.67;0.87;;;26.40;40.30;25.00;101655.00;;;;5071387;28;20046;-68
2022/08/11 15:52:02;;;;;;;1.77;1.10;;;26.30;40.30;25.00;101655.00;;;;5064663;28;20044;-68
2022/08/11 15:54:48;;;;;;;1.55;0.90;;;26.30;40.20;25.00;101653.00;;;;5077108;28;20123;-68
2022/08/11 16:04:12;;;;;;;1.23;0.85;;;26.30;40.20;25.00;101644.00;;;;5074793;28;20935;-69
2022/08/11 16:07:26;;;;;;;11.70;1.50;;;26.30;40.20;25.00;101638.00;;;;5066114;28;20051;-68
2022/08/11 16:10:17;;;;;;;3.70;1.42;;;26.30;39.30;25.00;101642.00;;;;5072230;28;20044;-68
2022/08/11 16:18:59;;;;;;;7.68;1.02;;;26.30;39.40;25.10;101638.00;;;;5073429;28;20062;-68
2022/08/11 16:21:45;;;;;;;5.03;0.90;;;26.30;39.50;25.10;101628.00;;;;5071246;28;20089;-68
2022/08/11 16:24:31;;;;;;;3.20;0.98;;;26.30;39.40;25.10;101623.00;;;;5087582;28;20035;-68
2022/08/11 16:27:17;;;;;;;2.58;1.00;;;26.40;39.60;25.10;101633.00;;;;5071470;28;20036;-69
2022/08/11 16:30:04;;;;;;;1.35;1.00;;;26.30;39.50;25.10;101626.00;;;;5071960;28;20036;-68
2022/08/11 16:32:51;;;;;;;3.08;1.30;;;26.40;39.60;25.10;101622.00;;;;5054180;28;20036;-67
2022/08/11 16:38:42;;;;;;;1.27;0.93;;;26.30;39.50;25.10;101627.00;;;;5064546;28;20121;-67
2022/08/11 16:47:41;;;;;;;1.73;0.90;;;26.40;39.60;25.10;101612.00;;;;5075575;28;20063;-67
2022/08/11 16:50:28;;;;;;;2.13;1.05;;;26.40;39.50;25.10;101617.00;;;;5067884;28;20040;-67
2022/08/11 16:53:17;;;;;;;1.02;0.90;;;26.40;39.60;25.10;101608.00;;;;5054663;28;20446;-67
2022/08/11 16:56:03;;;;;;;1.10;0.75;;;26.40;39.60;25.10;101607.00;;;;5092256;28;20035;-67
2022/08/11 17:02:05;;;;;;;2.22;1.05;;;26.40;39.70;25.10;101602.00;;;;5083169;28;20042;-67
2022/08/11 17:14:13;;;;;;;1.13;0.88;;;26.40;39.70;25.10;101614.00;;;;5059162;28;20278;-67
2022/08/11 17:16:59;;;;;;;1.05;0.95;;;26.40;39.60;25.10;101606.00;;;;5073423;28;20455;-67
2022/08/11 17:19:52;;;;;;;2.45;0.95;;;26.40;39.80;25.10;101598.00;;;;5077925;28;20035;-67
2022/08/11 17:25:43;;;;;;;1.92;0.80;;;26.40;39.80;25.20;101606.00;;;;5068515;28;20476;-67
2022/08/11 17:28:29;;;;;;;1.58;0.85;;;26.30;39.80;25.20;101600.00;;;;5074743;28;20055;-67
2022/08/11 17:37:25;;;;;;;1.08;0.80;;;26.50;39.80;25.10;101596.00;;;;5072651;28;20036;-67
2022/08/11 17:40:12;;;;;;;1.45;0.65;;;26.40;39.60;25.20;101594.00;;;;5058518;28;20425;-67
2022/08/11 17:49:10;;;;;;;1.67;0.70;;;26.40;38.90;25.20;101594.00;;;;5092097;28;20081;-67
2022/08/11 18:01:11;;;;;;;2.38;0.68;;;26.50;39.20;25.20;101602.00;;;;5066148;28;20540;-67
2022/08/11 18:03:57;;;;;;;3.28;0.90;;;26.50;39.40;25.20;101605.00;;;;5073905;28;20044;-67
2022/08/11 18:06:43;;;;;;;6.57;1.10;;;26.40;39.50;25.20;101587.00;;;;5085295;28;20243;-67
